Terminal Aerodrome Forecast
Issued by NWS

Home | Current Version | Previous Version | Text Only | Print | Product List | Glossary On
Versions: 1 2 3 4 5 6 7 8 9 10 11 12 13 14 15 16 17 18 19 20 21 22 23 24 25 26 27 28 29 30 31 32 33 34
000
FTUS46 KPQR 282320
TAFONP
TAF
KONP 282320Z 2900/2924 33011KT P6SM SCT030 BKN040
      TEMPO 2900/2902 BKN025
     FM290600 32005KT P6SM BKN030 BKN100
     FM291000 15005KT P6SM BKN020 OVC070
     FM291600 21007KT 2SM -RA BR BKN015 OVC025=

USA.gov is the U.S. government's official web portal to all federal, state and local government web resources and services.